アンタナナリボ の空港の天気 - METARとTAF

イヴァト空港(アンタナナリボ) ( FMMI / TNR ) - マダガスカル アンタナナリボ
飛行場実況気象(Metar)
観測時間08/14 00:00 EAT (08/13 21:00 UTC)
風向・風速東 3m/s
視程10km以上
天気現象
少しの雲 雲底高度 610m
気温11℃
湿度100%
気圧1025hPa
METARFMMI 132100Z 09006KT 9999 FEW020 11/11 Q1025 NOSIG
過去の天気等 Google飛行場航空写真 Wunderground天気予報

過去48時間のMETAR

飛行場予報(TAF)
発表時間: -
14日12時 EAT ~ 14日14時 EAT に徐々に
風向・風速東 5m/s
14日19時 EAT ~ 14日21時 EAT に徐々に
風向・風速南南東 3m/s
TAF
FMMI 131700Z 1318/1424 16006KT 9999 FEW017 SCT030
BECMG 1409/1411 10010KT
BECMG 1416/1418 16006KT